Αναφορές METAR

 

LGKV - Kavala/Chrisoupo, Greece
Απόσταση από το σταθμό: Α 54km
Ενημερώθηκε: 26/04/2018 03:50
Αίθριος
Αίθριος
 Ανεμος από Α
Ανεμος: Α 7 km/h
Θερμοκρασία: 13°C
Σημείο Δρόσου: 12°C
Υγρασία: 94%
Βαρόμετρο: 1013 hPa
Summary: Αίθριος
Ορατότητα: greater than 10 km
2018/04/26 00:50 LGKV 260050Z 08004KT CAVOK 13/12 Q1013
LGTS - Thessaloniki/Mik, Greece
Απόσταση από το σταθμό: ΔΝΔ 96km
Ενημερώθηκε: 26/04/2018 03:50
Αίθριος
Αίθριος
 Ανεμος από ΑΝΑ
Ανεμος: ΑΝΑ 7 km/h
Θερμοκρασία: 14°C
Σημείο Δρόσου: 8°C
Υγρασία: 67%
Βαρόμετρο: 1014 hPa
Summary: Αίθριος
Ορατότητα: greater than 10 km
2018/04/26 00:50 LGTS 260050Z 12004KT CAVOK 14/08 Q1014 NOSIG
 
LBPD - Plovdiv, Bulgaria
Απόσταση από το σταθμό: ΒΒΑ 151km
Ενημερώθηκε: 26/04/2018 04:30
Αίθριος
Αίθριος
 Ανεμος από μεταβλητός
Ανεμος: μεταβλητός 4 km/h
Θερμοκρασία: 15°C
Σημείο Δρόσου: 10°C
Υγρασία: 72%
Βαρόμετρο: 1014 hPa
Νέφωση: Αίθριος
Ορατότητα: 10 km
2018/04/26 01:30 LBPD 260130Z AUTO VRB02KT 9999 NCD 15/10 Q1014
LGLM - Limnos Island Ar, Greece
Απόσταση από το σταθμό: ΝΑ 154km
Ενημερώθηκε: 26/04/2018 04:20

 Ανεμος από μεταβλητός
Ανεμος: μεταβλητός 4 km/h
Θερμοκρασία: 12°C
Σημείο Δρόσου: 8°C
Υγρασία: 77%
Βαρόμετρο: 1013 hPa
2018/04/26 01:20 LGLM 260120Z AUTO VRB02KT //// // ////// 12/08 Q1013 RE//
 
LGAL - Alexandroupolis, Greece
Απόσταση από το σταθμό: Α 166km
Ενημερώθηκε: 25/04/2018 22:20
ΜΗ ΠΡΟΣΦΑΤΟ METAR
Διάσπαρτα Νέφη
Διάσπαρτα Νέφη
 Ανεμος από ΒΒΑ
Ανεμος: ΒΒΑ 7 km/h
Θερμοκρασία: 19°C
Σημείο Δρόσου: 12°C
Υγρασία: 64%
Βαρόμετρο: 1014 hPa
Νέφωση: Διάσπαρτα Νέφη
Ορατότητα: 10 km
Λεπτομέρειες νέφωσης: Διάσπαρτα Νέφη 762 m
2018/04/25 19:20 LGAL 251920Z 03004KT 9999 FEW025 19/12 Q1014
LGKZ - Kozani (civ/Army, Greece
Απόσταση από το σταθμό: ΔΝΔ 194km
Ενημερώθηκε: 25/04/2018 20:50
ΜΗ ΠΡΟΣΦΑΤΟ METAR
Αίθριος
Αίθριος
 Ανεμος από calm
Ανεμος: Απνοια
Θερμοκρασία: 23°C
Σημείο Δρόσου: 10°C
Υγρασία: 44%
Βαρόμετρο: 1015 hPa
Summary: Αίθριος
Ορατότητα: greater than 10 km
2018/04/25 17:50 LGKZ 251750Z 00000KT CAVOK 23/10 Q1015
 
LGSK - Skiathos Island, Greece
Απόσταση από το σταθμό: Ν 197km
Ενημερώθηκε: 25/04/2018 20:50
ΜΗ ΠΡΟΣΦΑΤΟ METAR
Αίθριος
Αίθριος
 Ανεμος από calm
Ανεμος: Απνοια
Θερμοκρασία: 19°C
Σημείο Δρόσου: 11°C
Υγρασία: 60%
Βαρόμετρο: 1014 hPa
Summary: Αίθριος
Ορατότητα: greater than 10 km
2018/04/25 17:50 LGSK 251750Z 00000KT CAVOK 19/11 Q1014
LBSF - Sofia (observato, Bulgaria
Απόσταση από το σταθμό: ΒΒΔ 198km
Ενημερώθηκε: 26/04/2018 04:30
Αίθριος
Αίθριος
 Ανεμος από calm
Ανεμος: Απνοια
Θερμοκρασία: 11°C
Σημείο Δρόσου: 10°C
Υγρασία: 94%
Βαρόμετρο: 1016 hPa
Summary: Αίθριος
Ορατότητα: greater than 10 km
2018/04/26 01:30 LBSF 260130Z 00000KT CAVOK 11/10 Q1016 NOSIG
 
LGBL - Nea Anchialos, Greece
Απόσταση από το σταθμό: ΝΝΔ 214km
Ενημερώθηκε: 26/04/2018 03:50
Αίθριος
Αίθριος
 Ανεμος από calm
Ανεμος: Απνοια
Θερμοκρασία: 12°C
Σημείο Δρόσου: 9°C
Υγρασία: 82%
Βαρόμετρο: 1014 hPa
Summary: Αίθριος
Ορατότητα: greater than 10 km
2018/04/26 00:50 LGBL 260050Z 00000KT CAVOK 12/09 Q1014
LGSY - Skiros, Greece
Απόσταση από το σταθμό: ΝΝΑ 222km
Ενημερώθηκε: 26/04/2018 02:50
ΜΗ ΠΡΟΣΦΑΤΟ METAR
Αίθριος
Αίθριος
 Ανεμος από calm
Ανεμος: Απνοια
Θερμοκρασία: 15°C
Σημείο Δρόσου: 9°C
Υγρασία: 68%
Βαρόμετρο: 1012 hPa
Summary: Αίθριος
Ορατότητα: greater than 10 km
2018/04/25 23:50 LGSY 252350Z 00000KT CAVOK 15/09 Q1012 BLU
 
LTBH - Canakkale, Turkey
Απόσταση από το σταθμό: ΑΝΑ 224km
Ενημερώθηκε: 26/04/2018 00:50
ΜΗ ΠΡΟΣΦΑΤΟ METAR
Αίθριος
Αίθριος
 Ανεμος από ΒΒΑ
Ανεμος: ΒΒΑ 11 km/h
Θερμοκρασία: 14°C
Σημείο Δρόσου: 12°C
Υγρασία: 88%
Βαρόμετρο: 1014 hPa
Summary: Αίθριος
Ορατότητα: greater than 10 km
2018/04/25 21:50 LTBH 252150Z 03006KT CAVOK 14/12 Q1014
LWSK - Skopje/Petrovac, Macedonia
Απόσταση από το σταθμό: ΔΒΔ 227km
Ενημερώθηκε: 26/04/2018 04:30
Αίθριος
Αίθριος
 Ανεμος από μεταβλητός
Ανεμος: μεταβλητός 2 km/h
Θερμοκρασία: 10°C
Σημείο Δρόσου: 8°C
Υγρασία: 88%
Βαρόμετρο: 1015 hPa
Summary: Αίθριος
Ορατότητα: greater than 10 km
2018/04/26 01:30 LWSK 260130Z VRB01KT CAVOK 10/08 Q1015 NOSIG
 
LWOH - Ohrid, Macedonia
Απόσταση από το σταθμό: Δ 272km
Ενημερώθηκε: 25/04/2018 22:30
ΜΗ ΠΡΟΣΦΑΤΟ METAR
Διάσπαρτα Νέφη
Διάσπαρτα Νέφη
 Ανεμος από Α
Ανεμος: Α 4 km/h
Θερμοκρασία: 16°C
Σημείο Δρόσου: 8°C
Υγρασία: 59%
Βαρόμετρο: 1017 hPa
Νέφωση: Διάσπαρτα Νέφη
Ορατότητα: 10 km
Λεπτομέρειες νέφωσης: Διάσπαρτα Νέφη 1524 m
2018/04/25 19:30 LWOH 251930Z 10002KT 9999 FEW050 16/08 Q1017
LBGO - Gorna Orechovist, Bulgaria
Απόσταση από το σταθμό: ΒΒΑ 287km
Ενημερώθηκε: 26/04/2018 04:30
Αίθριος
Αίθριος
 Ανεμος από calm
Ανεμος: Απνοια
Θερμοκρασία: 10°C
Σημείο Δρόσου: 10°C
Υγρασία: 100%
Βαρόμετρο: 1013 hPa
Νέφωση: Αίθριος
Ορατότητα: 10 km
2018/04/26 01:30 LBGO 260130Z AUTO 00000KT 9999 NCD 10/10 Q1013
 
LTFD - Balikesir Korfez, Turkey
Απόσταση από το σταθμό: ΑΝΑ 300km
Ενημερώθηκε: 26/04/2018 03:50
Αίθριος
Αίθριος
 Ανεμος από ΒΑ
Ανεμος: ΒΑ 6 km/h
Θερμοκρασία: 15°C
Σημείο Δρόσου: 9°C
Υγρασία: 68%
Βαρόμετρο: 1013 hPa
Summary: Αίθριος
Ορατότητα: greater than 10 km
2018/04/26 00:50 LTFD 260050Z 05003KT CAVOK 15/09 Q1013
LGIO - Ioannina, Greece
Απόσταση από το σταθμό: ΔΝΔ 300km
Ενημερώθηκε: 25/04/2018 22:20
ΜΗ ΠΡΟΣΦΑΤΟ METAR
Αίθριος
Αίθριος
 Ανεμος από μεταβλητός
Ανεμος: μεταβλητός 0 km/h
Θερμοκρασία: 15°C
Σημείο Δρόσου: 11°C
Υγρασία: 77%
Βαρόμετρο: 1016 hPa
Summary: Αίθριος
Ορατότητα: greater than 10 km
2018/04/25 19:20 LGIO 251920Z /////KT CAVOK 15/11 Q1016
 
LGMT - Mitilini, Greece
Απόσταση από το σταθμό: ΝΑ 305km
Ενημερώθηκε: 25/04/2018 22:50
ΜΗ ΠΡΟΣΦΑΤΟ METAR
Αίθριος
Αίθριος
 Ανεμος από calm
Ανεμος: Απνοια
Θερμοκρασία: 19°C
Σημείο Δρόσου: 14°C
Υγρασία: 73%
Βαρόμετρο: 1014 hPa
Summary: Αίθριος
Ορατότητα: greater than 10 km
2018/04/25 19:50 LGMT 251950Z 00000KT CAVOK 19/14 Q1014
BKPR - Prishtina, Yugoslavia
Απόσταση από το σταθμό: ΒΔ 306km
Ενημερώθηκε: 26/04/2018 04:30
Αίθριος
Αίθριος
 Ανεμος από μεταβλητός
Ανεμος: μεταβλητός 4 km/h
Θερμοκρασία: 12°C
Σημείο Δρόσου: 6°C
Υγρασία: 67%
Βαρόμετρο: 1016 hPa
Summary: Αίθριος
Ορατότητα: greater than 10 km
2018/04/26 01:30 BKPR 260130Z VRB02KT CAVOK 12/06 Q1016 NOSIG
 
LYNI - Nis, Yugoslavia
Απόσταση από το σταθμό: ΒΒΔ 317km
Ενημερώθηκε: 26/04/2018 04:30
Αίθριος
Αίθριος
 Ανεμος από μεταβλητός
Ανεμος: μεταβλητός 2 km/h
Θερμοκρασία: 14°C
Σημείο Δρόσου: 10°C
Υγρασία: 77%
Βαρόμετρο: 1014 hPa
Summary: Αίθριος
Ορατότητα: greater than 10 km
2018/04/26 01:30 LYNI 260130Z VRB01KT CAVOK 14/10 Q1014 NOSIG
LGEL - Elefsis (hel-Afb, Greece
Απόσταση από το σταθμό: Ν 319km
Ενημερώθηκε: 26/04/2018 04:20
Αίθριος
Αίθριος
 Ανεμος από μεταβλητός
Ανεμος: μεταβλητός 6 km/h
Θερμοκρασία: 14°C
Σημείο Δρόσου: 8°C
Υγρασία: 67%
Βαρόμετρο: 1013 hPa
Summary: Αίθριος
Ορατότητα: greater than 10 km
2018/04/26 01:20 LGEL 260120Z VRB03KT CAVOK 14/08 Q1013


 ♦     ♦     ♦     Ποτέ μη βασίζετε κρίσιμες αποφάσεις σ'αυτές ή οποιεσδήποτε πληροφορίες καιρού από το Internet     ♦     ♦     ♦